createdAt,value
2017-11-23T00:00:28.861Z,100.0
2017-11-23T00:01:30.488Z,100.0
2017-11-23T00:02:32.005Z,100.0
2017-11-23T00:03:33.595Z,100.0
2017-11-23T00:04:35.103Z,100.0
2017-11-23T00:05:36.693Z,100.0
2017-11-23T00:06:38.229Z,100.0
2017-11-23T00:07:40.040Z,100.0
2017-11-23T00:08:41.541Z,100.0
2017-11-23T00:09:43.263Z,100.0
2017-11-23T00:10:44.764Z,100.0
2017-11-23T00:11:46.323Z,100.0
2017-11-23T00:12:47.770Z,100.0
2017-11-23T00:13:49.353Z,100.0
2017-11-23T00:14:50.868Z,100.0
2017-11-23T00:15:52.704Z,100.0
2017-11-23T00:16:54.229Z,100.0
2017-11-23T00:17:55.816Z,100.0
2017-11-23T00:18:57.349Z,100.0
2017-11-23T00:19:58.905Z,100.0
2017-11-23T00:21:00.421Z,100.0
2017-11-23T00:22:01.945Z,100.0
2017-11-23T00:23:03.473Z,100.0
2017-11-23T00:24:05.063Z,100.0
2017-11-23T00:25:06.568Z,100.0
2017-11-23T00:26:08.165Z,100.0
2017-11-23T00:27:09.675Z,100.0
2017-11-23T00:28:16.155Z,100.0
2017-11-23T00:29:17.699Z,100.0
2017-11-23T00:30:19.359Z,99.9
2017-11-23T00:31:20.899Z,100.0
2017-11-23T00:32:22.544Z,100.0
2017-11-23T00:33:24.059Z,100.0
2017-11-23T00:34:25.719Z,100.0
2017-11-23T00:35:27.291Z,100.0
2017-11-23T00:36:29.009Z,100.0
2017-11-23T00:37:30.686Z,100.0
2017-11-23T00:38:32.354Z,100.0
2017-11-23T00:39:33.974Z,100.0
2017-11-23T00:40:35.659Z,100.0
2017-11-23T00:41:37.298Z,100.0
2017-11-23T00:42:39.001Z,100.0
2017-11-23T00:43:40.633Z,100.0
2017-11-23T00:44:42.291Z,100.0
2017-11-23T00:45:43.834Z,100.0
2017-11-23T00:46:45.447Z,100.0
2017-11-23T00:47:46.956Z,100.0
2017-11-23T00:48:48.599Z,100.0
2017-11-23T00:49:50.103Z,100.0
2017-11-23T00:50:51.847Z,100.0
2017-11-23T00:51:53.384Z,100.0
2017-11-23T00:52:55.084Z,100.0
2017-11-23T00:53:56.619Z,100.0
2017-11-23T00:54:58.235Z,100.0
2017-11-23T00:55:59.779Z,100.0
2017-11-23T00:57:01.454Z,100.0
2017-11-23T00:58:02.974Z,100.0
2017-11-23T00:59:04.609Z,100.0
2017-11-23T01:00:06.159Z,100.0
2017-11-23T01:01:07.843Z,100.0
2017-11-23T01:02:09.464Z,100.0
2017-11-23T01:03:11.046Z,100.0
2017-11-23T01:04:12.566Z,100.0
2017-11-23T01:05:14.197Z,100.0
2017-11-23T01:06:15.671Z,100.0
2017-11-23T01:07:17.231Z,100.0
2017-11-23T01:08:18.792Z,100.0
2017-11-23T01:09:21.460Z,100.0
2017-11-23T01:10:23.044Z,100.0
2017-11-23T01:11:24.637Z,100.0
2017-11-23T01:12:26.184Z,100.0
2017-11-23T01:13:27.818Z,100.0
2017-11-23T01:14:29.359Z,100.0
2017-11-23T01:15:47.582Z,100.0
2017-11-23T01:16:49.091Z,100.0
2017-11-23T01:17:50.709Z,100.0
2017-11-23T01:18:52.228Z,100.0
2017-11-23T01:19:55.843Z,100.0
2017-11-23T01:20:57.408Z,100.0
2017-11-23T01:21:59.110Z,100.0
2017-11-23T01:23:00.739Z,100.0
2017-11-23T01:24:02.370Z,100.0
2017-11-23T01:25:04.090Z,100.0
2017-11-23T01:26:05.812Z,100.0
2017-11-23T01:27:07.333Z,100.0
2017-11-23T01:28:09.082Z,100.0
2017-11-23T01:29:10.675Z,100.0
2017-11-23T01:30:12.354Z,100.0
2017-11-23T01:31:13.964Z,100.0
2017-11-23T01:32:15.595Z,100.0
2017-11-23T01:33:17.103Z,100.0
2017-11-23T01:34:18.731Z,100.0
2017-11-23T01:35:20.247Z,100.0
2017-11-23T01:36:21.885Z,100.0
2017-11-23T01:37:23.370Z,100.0
2017-11-23T01:38:25.001Z,100.0
2017-11-23T01:39:26.520Z,100.0
2017-11-23T01:40:28.146Z,100.0
2017-11-23T01:41:29.709Z,100.0
2017-11-23T01:42:31.271Z,100.0
2017-11-23T01:43:33.006Z,100.0
2017-11-23T01:44:34.599Z,100.0
2017-11-23T01:45:36.201Z,100.0
2017-11-23T01:46:37.922Z,100.0
2017-11-23T01:47:39.498Z,100.0
2017-11-23T01:48:41.375Z,100.0
2017-11-23T01:49:42.976Z,100.0
2017-11-23T01:50:44.573Z,100.0
2017-11-23T01:51:46.206Z,100.0
2017-11-23T01:52:53.579Z,100.0
2017-11-23T01:53:55.164Z,100.0
2017-11-23T01:54:56.818Z,100.0
2017-11-23T01:55:58.354Z,100.0
2017-11-23T01:56:59.924Z,100.0
2017-11-23T01:58:01.459Z,100.0
2017-11-23T01:59:03.046Z,100.0
2017-11-23T02:00:04.561Z,100.0
2017-11-23T02:01:06.095Z,100.0
2017-11-23T02:02:07.646Z,100.0
2017-11-23T02:03:09.225Z,100.0
2017-11-23T02:04:10.723Z,100.0
2017-11-23T02:05:12.290Z,100.0
2017-11-23T02:06:13.828Z,100.0
2017-11-23T02:07:15.558Z,100.0
2017-11-23T02:08:17.202Z,100.0
2017-11-23T02:09:18.850Z,99.2
2017-11-23T02:10:20.477Z,99.4
2017-11-23T02:11:22.091Z,99.3
2017-11-23T02:12:23.678Z,99.9
2017-11-23T02:13:25.278Z,100.0
2017-11-23T02:14:26.861Z,100.0
2017-11-23T02:15:28.442Z,100.0
2017-11-23T02:16:30.113Z,100.0
2017-11-23T02:17:31.657Z,100.0
2017-11-23T02:18:33.326Z,100.0
2017-11-23T02:19:34.842Z,98.2
2017-11-23T02:20:36.495Z,98.1
2017-11-23T02:21:38.075Z,98.8
2017-11-23T02:22:40.722Z,98.4
2017-11-23T02:23:42.310Z,98.1
2017-11-23T02:24:43.879Z,98.7
2017-11-23T02:25:45.544Z,97.3
2017-11-23T02:26:47.153Z,96.7
2017-11-23T02:27:48.789Z,96.7
2017-11-23T02:28:50.342Z,96.9
2017-11-23T02:29:52.071Z,97.5
2017-11-23T02:30:53.609Z,97.9
2017-11-23T02:32:01.173Z,98.1
2017-11-23T02:33:02.772Z,98.2
2017-11-23T02:34:45.334Z,98.8
2017-11-23T02:35:46.726Z,99.8
2017-11-23T02:36:48.201Z,100.0
2017-11-23T02:37:49.613Z,100.0
2017-11-23T02:38:53.110Z,100.0
2017-11-23T02:39:54.546Z,100.0
2017-11-23T02:40:57.115Z,100.0
2017-11-23T02:41:58.482Z,100.0
2017-11-23T02:42:59.980Z,91.3
2017-11-23T02:44:01.430Z,91.7
2017-11-23T02:45:02.885Z,93.7
2017-11-23T02:46:04.351Z,95.1
2017-11-23T02:47:05.875Z,96.8
2017-11-23T02:48:07.275Z,97.9
2017-11-23T02:49:13.876Z,97.9
2017-11-23T02:50:15.278Z,97.8
2017-11-23T02:51:21.867Z,98.1
2017-11-23T02:52:23.284Z,98.1
2017-11-23T02:53:24.747Z,98.1
2017-11-23T02:54:26.180Z,98.5
2017-11-23T02:55:27.761Z,99.3
2017-11-23T02:56:29.249Z,99.3
2017-11-23T02:57:30.730Z,99.3
2017-11-23T02:58:32.117Z,99.3
2017-11-23T02:59:33.741Z,99.7
2017-11-23T03:00:35.161Z,99.9
2017-11-23T03:01:36.864Z,99.9
2017-11-23T03:02:38.297Z,99.4
2017-11-23T03:03:40.878Z,98.9
2017-11-23T03:04:42.409Z,97.9
2017-11-23T03:05:43.902Z,96.9
2017-11-23T03:06:45.344Z,93.9
2017-11-23T03:07:47.850Z,95.0
2017-11-23T03:08:49.295Z,94.8
2017-11-23T03:09:50.826Z,95.6
2017-11-23T03:10:52.192Z,96.2
2017-11-23T03:11:53.708Z,96.5
2017-11-23T03:12:55.127Z,96.7
2017-11-23T03:13:56.641Z,97.8
2017-11-23T03:14:58.093Z,98.5
2017-11-23T03:16:00.605Z,99.3
2017-11-23T03:17:01.993Z,99.2
2017-11-23T03:18:08.254Z,99.0
2017-11-23T03:19:09.657Z,98.9
2017-11-23T03:20:11.150Z,98.4
2017-11-23T03:21:12.586Z,96.9
2017-11-23T03:22:14.088Z,96.0
2017-11-23T03:23:15.511Z,95.6
2017-11-23T03:24:17.042Z,94.7
2017-11-23T03:25:18.469Z,93.9
2017-11-23T03:26:20.022Z,93.7
2017-11-23T03:27:21.447Z,93.2
2017-11-23T03:28:22.958Z,93.7
2017-11-23T03:29:24.413Z,91.5
2017-11-23T03:30:25.987Z,91.7
2017-11-23T03:31:27.432Z,91.9
2017-11-23T03:32:28.976Z,92.0
2017-11-23T03:33:30.448Z,92.8
2017-11-23T03:34:31.957Z,93.5
2017-11-23T03:35:33.370Z,94.7
2017-11-23T03:36:34.879Z,95.1
2017-11-23T03:37:36.289Z,94.7
2017-11-23T03:38:37.762Z,93.2
2017-11-23T03:39:39.174Z,95.2
2017-11-23T03:40:40.663Z,95.9
2017-11-23T03:41:42.061Z,96.4
2017-11-23T03:42:43.584Z,96.9
2017-11-23T03:43:44.976Z,97.1
2017-11-23T03:44:48.460Z,97.1
2017-11-23T03:45:49.904Z,97.7
2017-11-23T03:46:51.421Z,98.4
2017-11-23T03:47:52.837Z,98.8
2017-11-23T03:48:54.428Z,100.0
2017-11-23T03:49:55.860Z,99.4
2017-11-23T03:50:58.369Z,99.4
2017-11-23T03:51:59.726Z,99.4
2017-11-23T03:53:01.217Z,99.3
2017-11-23T03:54:02.716Z,98.8
2017-11-23T03:55:04.171Z,98.1
2017-11-23T03:56:05.640Z,97.7
2017-11-23T03:57:07.109Z,96.5
2017-11-23T03:58:08.502Z,95.4
2017-11-23T03:59:09.917Z,96.1
2017-11-23T04:00:11.427Z,97.0
2017-11-23T04:01:12.818Z,97.2
2017-11-23T04:02:14.313Z,98.0
2017-11-23T04:03:15.711Z,97.3
2017-11-23T04:04:17.104Z,97.4
2017-11-23T04:05:18.538Z,97.1
2017-11-23T04:06:20.049Z,98.2
2017-11-23T04:07:21.463Z,92.9
2017-11-23T04:08:22.852Z,91.8
2017-11-23T04:09:24.256Z,92.4
2017-11-23T04:10:25.786Z,93.2
2017-11-23T04:11:27.217Z,94.2
2017-11-23T04:12:28.705Z,94.6
2017-11-23T04:13:30.126Z,95.6
2017-11-23T04:14:31.723Z,96.6
2017-11-23T04:15:33.152Z,96.4
2017-11-23T04:16:34.659Z,97.0
2017-11-23T04:17:36.043Z,96.7
2017-11-23T04:18:37.489Z,97.0
2017-11-23T04:19:38.921Z,97.4
2017-11-23T04:20:40.662Z,98.0
2017-11-23T04:21:42.243Z,98.0
2017-11-23T04:22:43.969Z,98.1
2017-11-23T04:23:45.543Z,97.9
2017-11-23T04:24:47.200Z,98.0
2017-11-23T04:25:48.706Z,98.4
2017-11-23T04:26:50.296Z,98.7
2017-11-23T04:27:51.913Z,98.1
2017-11-23T04:28:53.428Z,97.1
2017-11-23T04:29:56.010Z,97.8
2017-11-23T04:30:57.517Z,97.9
2017-11-23T04:31:59.171Z,97.9
2017-11-23T04:33:00.679Z,97.8
2017-11-23T04:34:16.833Z,97.9
2017-11-23T04:35:18.339Z,98.4
2017-11-23T04:36:20.942Z,98.4
2017-11-23T04:37:22.482Z,98.3
2017-11-23T04:38:25.052Z,98.6
2017-11-23T04:39:26.593Z,99.3
2017-11-23T04:40:29.203Z,99.1
2017-11-23T04:41:30.703Z,99.3
2017-11-23T04:42:33.285Z,99.3
2017-11-23T04:43:34.834Z,98.8
2017-11-23T04:44:36.560Z,98.6
2017-11-23T04:45:38.102Z,98.2
2017-11-23T04:46:39.683Z,98.7
2017-11-23T04:47:41.219Z,98.3
2017-11-23T04:48:42.852Z,98.5
2017-11-23T04:49:44.405Z,98.4
2017-11-23T04:50:46.051Z,96.6
2017-11-23T04:51:47.660Z,96.0
2017-11-23T04:52:49.205Z,96.1
2017-11-23T04:53:50.734Z,96.7
2017-11-23T04:54:52.331Z,96.5
2017-11-23T04:55:53.833Z,97.0
2017-11-23T04:56:55.422Z,97.2
2017-11-23T04:57:56.975Z,96.8
2017-11-23T04:58:58.593Z,93.5
2017-11-23T05:00:00.063Z,93.9
2017-11-23T05:01:01.711Z,95.2
2017-11-23T05:02:03.244Z,93.9
2017-11-23T05:03:06.899Z,93.8
2017-11-23T05:04:08.415Z,93.5
2017-11-23T05:05:12.049Z,91.1
2017-11-23T05:06:13.639Z,87.2
2017-11-23T05:07:16.298Z,88.0
2017-11-23T05:08:17.863Z,87.0
2017-11-23T05:09:19.376Z,85.6
2017-11-23T05:10:20.991Z,86.1
2017-11-23T05:11:22.510Z,84.7
2017-11-23T05:12:26.115Z,85.6
2017-11-23T05:13:27.639Z,87.8
2017-11-23T05:14:29.292Z,88.1
2017-11-23T05:15:30.861Z,89.9
2017-11-23T05:16:37.399Z,90.7
2017-11-23T05:17:38.982Z,86.3
2017-11-23T05:18:40.636Z,86.2
2017-11-23T05:19:42.298Z,86.1
2017-11-23T05:20:43.822Z,85.0
2017-11-23T05:21:46.501Z,86.1
2017-11-23T05:22:48.177Z,88.2
2017-11-23T05:23:50.769Z,88.0
2017-11-23T05:24:52.369Z,84.6
2017-11-23T05:25:53.961Z,83.2
2017-11-23T05:26:55.587Z,81.1
2017-11-23T05:27:57.253Z,81.1
2017-11-23T05:28:58.817Z,81.0
2017-11-23T05:30:00.378Z,82.1
2017-11-23T05:31:01.987Z,84.0
2017-11-23T05:32:03.646Z,84.1
2017-11-23T05:33:05.154Z,83.8
2017-11-23T05:34:06.761Z,83.8
2017-11-23T05:35:08.270Z,82.7
2017-11-23T05:36:09.945Z,84.7
2017-11-23T05:37:11.491Z,84.0
2017-11-23T05:38:13.110Z,82.0
2017-11-23T05:39:14.613Z,80.6
2017-11-23T05:40:16.259Z,79.6
2017-11-23T05:41:17.714Z,79.9
2017-11-23T05:42:19.318Z,80.3
2017-11-23T05:43:20.927Z,80.7
2017-11-23T05:44:22.580Z,81.3
2017-11-23T05:45:24.178Z,81.3
2017-11-23T05:46:25.828Z,83.1
2017-11-23T05:47:27.427Z,81.9
2017-11-23T05:48:29.290Z,82.5
2017-11-23T05:49:30.844Z,82.7
2017-11-23T05:50:32.596Z,82.9
2017-11-23T05:51:34.294Z,83.6
2017-11-23T05:52:35.982Z,84.0
2017-11-23T05:53:37.557Z,84.4
2017-11-23T05:54:39.614Z,85.0
2017-11-23T05:55:41.150Z,86.1
2017-11-23T05:56:42.744Z,86.9
2017-11-23T05:57:44.344Z,87.6
2017-11-23T05:58:45.965Z,88.0
2017-11-23T05:59:47.470Z,88.5
2017-11-23T06:00:49.068Z,88.7
2017-11-23T06:01:50.647Z,88.7
2017-11-23T06:02:52.267Z,88.7
2017-11-23T06:03:53.774Z,88.7
2017-11-23T06:04:55.288Z,89.5
2017-11-23T06:05:56.832Z,90.3
2017-11-23T06:06:58.335Z,90.9
2017-11-23T06:07:59.842Z,91.2
2017-11-23T06:09:01.472Z,91.4
2017-11-23T06:10:03.191Z,91.3
2017-11-23T06:11:09.448Z,92.1
2017-11-23T06:12:11.335Z,91.7
2017-11-23T06:13:12.918Z,92.4
2017-11-23T06:14:14.460Z,92.4
2017-11-23T06:15:17.082Z,92.3
2017-11-23T06:16:18.689Z,92.1
2017-11-23T06:17:21.344Z,90.9
2017-11-23T06:18:22.944Z,87.7
2017-11-23T06:19:24.528Z,87.5
2017-11-23T06:20:26.132Z,87.3
2017-11-23T06:21:27.695Z,87.2
2017-11-23T06:22:29.330Z,87.3
2017-11-23T06:23:31.116Z,87.5
2017-11-23T06:24:32.732Z,86.9
2017-11-23T06:25:34.521Z,87.6
2017-11-23T06:26:36.126Z,89.0
2017-11-23T06:27:38.048Z,89.1
2017-11-23T06:28:39.689Z,89.6
2017-11-23T06:29:41.245Z,90.1
2017-11-23T06:30:42.776Z,88.0
2017-11-23T06:31:44.451Z,89.6
2017-11-23T06:32:46.184Z,90.5
2017-11-23T06:33:47.731Z,90.2
2017-11-23T06:34:49.332Z,90.3
2017-11-23T06:35:50.999Z,89.2
2017-11-23T06:36:52.499Z,89.1
2017-11-23T06:37:54.202Z,89.5
2017-11-23T06:38:55.784Z,89.5
2017-11-23T06:39:57.459Z,88.6
2017-11-23T06:41:01.228Z,89.3
2017-11-23T06:42:02.941Z,90.0
2017-11-23T06:43:04.881Z,90.0
2017-11-23T06:44:06.586Z,90.0
2017-11-23T06:45:08.337Z,90.4
2017-11-23T06:46:10.045Z,89.2
2017-11-23T06:47:11.928Z,87.2
2017-11-23T06:48:13.574Z,87.9
2017-11-23T06:49:15.288Z,86.1
2017-11-23T06:50:16.892Z,85.6
2017-11-23T06:51:19.615Z,85.9
2017-11-23T06:52:21.268Z,86.1
2017-11-23T06:53:23.952Z,85.1
2017-11-23T06:54:25.576Z,86.0
2017-11-23T06:55:27.204Z,87.6
2017-11-23T06:56:28.780Z,89.5
2017-11-23T06:57:30.509Z,88.9
2017-11-23T06:58:32.134Z,88.6
2017-11-23T06:59:33.886Z,88.0
2017-11-23T07:00:35.464Z,88.6
2017-11-23T07:01:37.310Z,89.3
2017-11-23T07:02:39.190Z,89.8
2017-11-23T07:03:40.839Z,90.3
2017-11-23T07:04:42.506Z,90.6
2017-11-23T07:05:44.304Z,90.7
2017-11-23T07:06:45.962Z,90.1
2017-11-23T07:07:47.730Z,89.2
2017-11-23T07:08:49.389Z,87.5
2017-11-23T07:09:51.242Z,85.9
2017-11-23T07:10:52.927Z,81.9
2017-11-23T07:11:55.556Z,82.7
2017-11-23T07:12:57.121Z,84.0
2017-11-23T07:13:58.763Z,81.4
2017-11-23T07:15:00.342Z,82.1
2017-11-23T07:16:01.909Z,83.5
2017-11-23T07:17:03.503Z,84.0
2017-11-23T07:18:05.192Z,86.1
2017-11-23T07:19:06.836Z,82.1
2017-11-23T07:20:09.624Z,80.9
2017-11-23T07:21:11.257Z,84.1
2017-11-23T07:22:13.919Z,84.9
2017-11-23T07:23:15.469Z,84.7
2017-11-23T07:24:17.163Z,84.9
2017-11-23T07:25:18.671Z,85.2
2017-11-23T07:26:20.279Z,85.9
2017-11-23T07:27:21.909Z,83.7
2017-11-23T07:28:23.564Z,84.0
2017-11-23T07:29:25.128Z,85.3
2017-11-23T07:30:26.772Z,86.2
2017-11-23T07:31:28.278Z,85.0
2017-11-23T07:32:29.876Z,83.6
2017-11-23T07:33:31.480Z,80.4
2017-11-23T07:34:33.068Z,81.2
2017-11-23T07:35:34.586Z,81.1
2017-11-23T07:36:36.218Z,81.0
2017-11-23T07:37:37.789Z,79.7
2017-11-23T07:38:39.385Z,79.5
2017-11-23T07:39:41.012Z,79.5
2017-11-23T07:40:42.532Z,78.1
2017-11-23T07:41:44.249Z,78.0
2017-11-23T07:42:45.789Z,78.0
2017-11-23T07:43:47.336Z,76.2
2017-11-23T07:44:48.959Z,74.8
2017-11-23T07:45:51.888Z,74.3
2017-11-23T07:46:53.609Z,74.4
2017-11-23T07:47:55.420Z,74.0
2017-11-23T07:48:56.955Z,74.7
2017-11-23T07:49:59.017Z,76.3
2017-11-23T07:51:01.205Z,75.6
2017-11-23T07:52:02.849Z,75.2
2017-11-23T07:53:04.561Z,74.2
2017-11-23T07:54:07.349Z,73.1
2017-11-23T07:55:08.959Z,73.9
2017-11-23T07:56:10.650Z,73.5
2017-11-23T07:57:12.259Z,72.7
2017-11-23T07:58:13.914Z,71.7
2017-11-23T07:59:15.563Z,71.5
2017-11-23T08:00:17.209Z,73.5
2017-11-23T08:01:18.781Z,72.1
2017-11-23T08:02:20.517Z,71.9
2017-11-23T08:03:22.026Z,72.4
2017-11-23T08:04:23.787Z,72.7
2017-11-23T08:05:25.365Z,72.8
2017-11-23T08:06:26.947Z,71.8
2017-11-23T08:07:28.678Z,71.8
2017-11-23T08:08:30.829Z,71.3
2017-11-23T08:09:32.372Z,71.8
2017-11-23T08:10:34.957Z,72.0
2017-11-23T08:11:36.525Z,72.5
2017-11-23T08:12:38.211Z,71.9
2017-11-23T08:13:39.841Z,71.5
2017-11-23T08:14:41.410Z,71.2
2017-11-23T08:15:43.006Z,71.0
2017-11-23T08:16:44.614Z,70.8
2017-11-23T08:17:46.156Z,71.6
2017-11-23T08:18:47.867Z,70.9
2017-11-23T08:19:49.420Z,70.1
2017-11-23T08:20:51.121Z,70.5
2017-11-23T08:21:52.797Z,70.7
2017-11-23T08:22:54.410Z,71.0
2017-11-23T08:23:56.036Z,70.6
2017-11-23T08:24:57.713Z,71.2
2017-11-23T08:25:59.241Z,71.6
2017-11-23T08:27:00.942Z,71.6
2017-11-23T08:28:02.553Z,69.7
2017-11-23T08:29:04.234Z,68.4
2017-11-23T08:30:05.861Z,68.3
2017-11-23T08:31:07.531Z,67.9
2017-11-23T08:32:09.116Z,68.2
2017-11-23T08:33:10.728Z,68.9
2017-11-23T08:34:12.267Z,68.3
2017-11-23T08:35:13.968Z,68.5
2017-11-23T08:36:15.517Z,69.9
2017-11-23T08:37:18.167Z,69.8
2017-11-23T08:38:19.697Z,70.2
2017-11-23T08:39:22.556Z,70.0
2017-11-23T08:40:24.316Z,68.8
2017-11-23T08:41:25.998Z,69.0
2017-11-23T08:42:27.515Z,68.6
2017-11-23T08:43:29.190Z,68.0
2017-11-23T08:44:30.892Z,68.3
2017-11-23T08:45:32.602Z,68.1
2017-11-23T08:46:34.259Z,69.2
2017-11-23T08:47:35.946Z,69.8
2017-11-23T08:48:37.546Z,70.1
2017-11-23T08:49:40.188Z,68.8
2017-11-23T08:50:41.801Z,68.9
2017-11-23T08:51:43.523Z,69.8
2017-11-23T08:52:45.149Z,69.4
2017-11-23T08:53:46.732Z,70.2
2017-11-23T08:54:48.464Z,69.7
2017-11-23T08:55:50.081Z,69.8
2017-11-23T08:56:51.813Z,68.4
2017-11-23T08:57:53.389Z,68.6
2017-11-23T08:58:55.000Z,69.9
2017-11-23T08:59:57.575Z,70.2
2017-11-23T09:00:59.160Z,69.7
2017-11-23T09:02:01.835Z,71.1
2017-11-23T09:03:03.366Z,70.7
2017-11-23T09:04:06.070Z,70.0
2017-11-23T09:05:07.701Z,69.6
2017-11-23T09:06:09.292Z,69.8
2017-11-23T09:07:11.062Z,68.9
2017-11-23T09:08:13.809Z,70.1
2017-11-23T09:09:15.418Z,69.9
2017-11-23T09:10:17.035Z,69.2
2017-11-23T09:11:18.559Z,68.0
2017-11-23T09:12:21.338Z,68.2
2017-11-23T09:13:22.941Z,67.0
2017-11-23T09:14:24.595Z,67.9
2017-11-23T09:15:27.158Z,69.0
2017-11-23T09:16:28.737Z,69.6
2017-11-23T09:17:30.259Z,70.3
2017-11-23T09:18:32.855Z,71.1
2017-11-23T09:19:34.392Z,72.7
2017-11-23T09:20:36.108Z,73.1
2017-11-23T09:21:37.915Z,71.8
2017-11-23T09:22:39.543Z,73.7
2017-11-23T09:23:41.145Z,74.0
2017-11-23T09:24:43.781Z,74.1
2017-11-23T09:25:45.333Z,71.6
2017-11-23T09:26:46.907Z,73.4
2017-11-23T09:27:48.434Z,73.6
2017-11-23T09:28:50.085Z,74.3
2017-11-23T09:29:51.729Z,74.6
2017-11-23T09:30:53.375Z,73.6
2017-11-23T09:31:54.984Z,72.4
2017-11-23T09:32:56.693Z,73.2
2017-11-23T09:33:58.350Z,72.9
2017-11-23T09:34:59.948Z,73.6
2017-11-23T09:36:01.465Z,73.9
2017-11-23T09:37:03.081Z,74.5
2017-11-23T09:38:04.640Z,75.0
2017-11-23T09:39:06.308Z,74.3
2017-11-23T09:40:07.953Z,75.1
2017-11-23T09:41:14.522Z,74.8
2017-11-23T09:42:16.078Z,70.9
2017-11-23T09:43:17.720Z,71.2
2017-11-23T09:44:19.316Z,73.4
2017-11-23T09:45:20.890Z,74.6
2017-11-23T09:46:22.610Z,73.8
2017-11-23T09:47:24.264Z,74.1
2017-11-23T09:48:25.872Z,73.0
2017-11-23T09:49:27.480Z,72.1
2017-11-23T09:50:29.117Z,70.4
2017-11-23T09:51:30.864Z,72.2
2017-11-23T09:52:32.485Z,73.2
2017-11-23T09:53:34.122Z,72.5
2017-11-23T09:54:35.658Z,70.7
2017-11-23T09:55:37.327Z,68.4
2017-11-23T09:56:38.836Z,69.7
2017-11-23T09:57:40.677Z,69.9
2017-11-23T09:58:42.227Z,68.8
2017-11-23T09:59:43.874Z,69.0
2017-11-23T10:00:45.618Z,69.0
2017-11-23T10:01:47.261Z,69.2
2017-11-23T10:02:48.800Z,69.6
2017-11-23T10:03:50.463Z,67.2
2017-11-23T10:04:52.233Z,68.3
2017-11-23T10:05:53.836Z,67.4
2017-11-23T10:06:55.441Z,66.7
2017-11-23T10:07:58.044Z,68.2
2017-11-23T10:08:59.588Z,67.6
2017-11-23T10:10:01.210Z,67.5
2017-11-23T10:11:02.798Z,68.5
2017-11-23T10:12:04.460Z,67.0
2017-11-23T10:13:06.011Z,67.0
2017-11-23T10:14:07.667Z,65.9
2017-11-23T10:15:09.291Z,65.4
2017-11-23T10:16:11.986Z,65.5
2017-11-23T10:17:13.623Z,65.9
2017-11-23T10:18:15.272Z,66.2
2017-11-23T10:19:17.746Z,66.2
2017-11-23T10:20:19.385Z,66.4
2017-11-23T10:21:20.962Z,65.9
2017-11-23T10:22:22.648Z,64.6
2017-11-23T10:23:24.784Z,64.7
2017-11-23T10:24:25.833Z,63.2
2017-11-23T10:25:27.458Z,63.4
2017-11-23T10:26:28.963Z,63.4
2017-11-23T10:27:30.562Z,64.6
2017-11-23T10:28:32.191Z,64.1
2017-11-23T10:29:34.347Z,64.1
2017-11-23T10:30:35.917Z,63.7
2017-11-23T10:31:38.330Z,62.8
2017-11-23T10:32:39.936Z,61.9
2017-11-23T10:33:41.506Z,60.2
2017-11-23T10:34:43.126Z,59.4
2017-11-23T10:35:44.782Z,58.9
2017-11-23T10:36:46.451Z,59.8
2017-11-23T10:37:48.120Z,60.1
2017-11-23T10:38:49.744Z,58.7
2017-11-23T10:39:51.283Z,58.3
2017-11-23T10:40:53.514Z,57.6
2017-11-23T10:41:55.179Z,58.8
2017-11-23T10:42:57.737Z,58.4
2017-11-23T10:44:00.127Z,59.0
2017-11-23T10:45:01.708Z,60.9
2017-11-23T10:46:03.302Z,61.7
2017-11-23T10:47:04.909Z,61.3
2017-11-23T10:48:06.524Z,59.6
2017-11-23T10:49:09.554Z,60.6
2017-11-23T10:50:11.164Z,60.1
2017-11-23T10:51:12.875Z,60.1
2017-11-23T10:52:14.478Z,59.7
2017-11-23T10:53:16.121Z,58.7
2017-11-23T10:54:17.789Z,59.2
2017-11-23T10:55:19.507Z,58.4
2017-11-23T10:56:21.246Z,58.5
2017-11-23T10:57:23.011Z,58.9
2017-11-23T10:58:25.381Z,58.9
2017-11-23T10:59:27.194Z,59.3
2017-11-23T11:00:28.919Z,59.1
2017-11-23T11:01:30.506Z,60.1
2017-11-23T11:02:32.127Z,58.3
2017-11-23T11:03:34.485Z,59.2
2017-11-23T11:04:36.154Z,59.5
2017-11-23T11:05:37.768Z,59.2
2017-11-23T11:06:39.394Z,60.3
2017-11-23T11:07:40.971Z,60.4
2017-11-23T11:08:42.547Z,60.0
2017-11-23T11:09:44.433Z,59.9
2017-11-23T11:10:46.215Z,59.7
2017-11-23T11:11:47.868Z,59.6
2017-11-23T11:12:49.605Z,60.0
2017-11-23T11:13:51.234Z,60.6
2017-11-23T11:14:52.853Z,60.7
2017-11-23T11:15:55.572Z,61.4
2017-11-23T11:16:57.363Z,60.0
2017-11-23T11:17:59.114Z,59.8
2017-11-23T11:19:01.801Z,60.6
2017-11-23T11:20:03.538Z,61.6
2017-11-23T11:21:05.212Z,61.3
2017-11-23T11:22:07.004Z,60.4
2017-11-23T11:23:08.615Z,61.2
2017-11-23T11:24:10.197Z,60.0
2017-11-23T11:25:11.884Z,60.5
2017-11-23T11:26:13.516Z,61.5
2017-11-23T11:27:15.235Z,60.3
2017-11-23T11:28:16.924Z,58.7
2017-11-23T11:29:18.699Z,59.6
2017-11-23T11:30:20.340Z,59.9
2017-11-23T11:31:22.083Z,61.6
2017-11-23T11:32:23.789Z,61.9
2017-11-23T11:33:25.542Z,60.8
2017-11-23T11:34:27.209Z,59.9
2017-11-23T11:35:28.858Z,59.0
2017-11-23T11:36:30.541Z,59.3
2017-11-23T11:37:32.178Z,59.4
2017-11-23T11:38:33.911Z,57.3
2017-11-23T11:39:37.393Z,57.2
2017-11-23T11:40:39.243Z,59.0
2017-11-23T11:41:40.762Z,59.2
2017-11-23T11:42:42.389Z,58.5
2017-11-23T11:43:44.048Z,59.2
2017-11-23T11:44:45.697Z,57.3
2017-11-23T11:45:47.434Z,58.8
2017-11-23T11:46:49.188Z,59.8
2017-11-23T11:47:50.790Z,59.7
2017-11-23T11:48:52.538Z,58.5
2017-11-23T11:49:54.259Z,60.1
2017-11-23T11:50:55.912Z,61.0
2017-11-23T11:51:57.649Z,60.4
2017-11-23T11:52:59.409Z,60.1
2017-11-23T11:54:01.118Z,60.1
2017-11-23T11:55:02.878Z,60.1
2017-11-23T11:56:04.512Z,58.0
2017-11-23T11:57:06.256Z,58.0
2017-11-23T11:58:07.877Z,58.6
2017-11-23T11:59:09.643Z,58.3
2017-11-23T12:00:11.307Z,59.3
2017-11-23T12:01:12.926Z,58.3
2017-11-23T12:02:14.676Z,57.7
2017-11-23T12:03:17.534Z,58.7
2017-11-23T12:04:19.119Z,56.9
2017-11-23T12:05:20.851Z,55.0
2017-11-23T12:06:22.404Z,54.9
2017-11-23T12:07:23.963Z,55.5
2017-11-23T12:08:25.569Z,54.9
2017-11-23T12:09:27.153Z,54.2
2017-11-23T12:10:29.766Z,55.3
2017-11-23T12:11:31.344Z,55.0
2017-11-23T12:12:33.016Z,54.5
2017-11-23T12:13:34.609Z,54.0
2017-11-23T12:14:36.303Z,54.0
2017-11-23T12:15:37.950Z,54.3
2017-11-23T12:16:39.735Z,54.9
2017-11-23T12:17:41.340Z,55.5
2017-11-23T12:18:43.150Z,54.3
2017-11-23T12:19:44.779Z,54.5
2017-11-23T12:20:46.389Z,54.5
2017-11-23T12:21:48.338Z,54.7
2017-11-23T12:22:49.971Z,54.3
2017-11-23T12:23:51.693Z,54.9
2017-11-23T12:24:53.505Z,54.1
2017-11-23T12:25:55.268Z,53.2
2017-11-23T12:26:56.845Z,53.7
2017-11-23T12:27:58.505Z,54.7
2017-11-23T12:29:00.262Z,54.4
2017-11-23T12:30:02.279Z,53.5
2017-11-23T12:31:04.007Z,54.4
2017-11-23T12:32:05.649Z,54.7
2017-11-23T12:33:07.208Z,54.9
2017-11-23T12:34:08.830Z,54.9
2017-11-23T12:35:10.466Z,54.8
2017-11-23T12:36:12.168Z,54.4
2017-11-23T12:37:13.776Z,54.2
2017-11-23T12:38:15.352Z,54.3
2017-11-23T12:39:16.968Z,53.6
2017-11-23T12:40:18.577Z,54.3
2017-11-23T12:41:20.258Z,54.2
2017-11-23T12:42:22.059Z,53.7
2017-11-23T12:43:23.840Z,54.5
2017-11-23T12:44:25.529Z,53.7
2017-11-23T12:45:27.258Z,54.0
2017-11-23T12:46:28.865Z,54.4
2017-11-23T12:47:30.473Z,54.2
2017-11-23T12:48:32.291Z,54.8
2017-11-23T12:49:33.844Z,55.0
2017-11-23T12:50:35.423Z,54.3
2017-11-23T12:51:37.031Z,53.9
2017-11-23T12:52:38.667Z,54.5
2017-11-23T12:53:40.257Z,54.4
2017-11-23T12:54:42.099Z,55.2
2017-11-23T12:55:43.942Z,55.1
2017-11-23T12:56:45.629Z,54.6
2017-11-23T12:57:47.369Z,55.2
2017-11-23T12:58:49.142Z,54.8
2017-11-23T12:59:50.807Z,55.1
2017-11-23T13:00:52.639Z,55.3
2017-11-23T13:01:54.748Z,54.8
2017-11-23T13:02:56.522Z,54.7
2017-11-23T13:04:00.229Z,55.5
2017-11-23T13:05:01.933Z,54.9
2017-11-23T13:06:03.569Z,55.1
2017-11-23T13:07:05.473Z,54.5
2017-11-23T13:08:07.130Z,55.0
2017-11-23T13:09:10.083Z,55.3
2017-11-23T13:10:11.738Z,55.4
2017-11-23T13:11:13.421Z,55.8
2017-11-23T13:12:15.151Z,56.4
2017-11-23T13:13:16.828Z,55.6
2017-11-23T13:14:18.637Z,56.1
2017-11-23T13:15:20.425Z,56.3
2017-11-23T13:16:22.224Z,56.1
2017-11-23T13:17:24.133Z,56.2
2017-11-23T13:18:25.830Z,56.4
2017-11-23T13:19:27.476Z,56.3
2017-11-23T13:20:29.150Z,56.5
2017-11-23T13:21:31.942Z,56.8
2017-11-23T13:22:33.553Z,56.3
2017-11-23T13:23:35.323Z,57.1
2017-11-23T13:24:37.069Z,57.2
2017-11-23T13:25:38.852Z,58.7
2017-11-23T13:26:40.464Z,57.1
2017-11-23T13:27:42.272Z,57.0
2017-11-23T13:28:44.397Z,56.7
2017-11-23T13:29:45.930Z,56.3
2017-11-23T13:30:47.815Z,56.9
2017-11-23T13:31:49.714Z,56.7
2017-11-23T13:32:51.500Z,56.5
2017-11-23T13:33:53.235Z,56.4
2017-11-23T13:34:54.928Z,57.1
2017-11-23T13:35:56.714Z,56.8
2017-11-23T13:36:58.509Z,57.1
2017-11-23T13:38:00.213Z,57.1